Terminal Aerodrome Forecast
Issued by NWS

Home | Current Version | Previous Version | Text Only | Print | Product List | Glossary On
Versions: 1 2 3 4 5 6 7 8 9 10 11 12 13 14 15 16 17 18 19 20 21 22 23 24 25 26 27 28 29 30 31
000
FTUS44 KOUN 291124
TAFPNC
TAF
KPNC 291124Z 2912/3012 15007KT P6SM SCT025 BKN100
      TEMPO 2912/2915 6SM -RA BR BKN025
     FM291800 17010KT P6SM BKN035
     FM300300 35012KT P6SM BKN035
      TEMPO 3003/3005 4SM -TSRA BR OVC025CB
     FM300800 35013KT P6SM BKN025=

USA.gov is the U.S. government's official web portal to all federal, state and local government web resources and services.